Terminal Aerodrome Forecast
Issued by NWS

Current Version | Previous Version | Text Only | Print | Product List | Glossary On
Versions: 1 2 3 4 5 6 7 8 9 10 11 12
000
FTUS44 KBMX 211726
TAFMGM
TAF
KMGM 211726Z 2118/2218 11008KT P6SM FEW040 BKN250
     FM220000 09004KT P6SM BKN250
     FM221300 10007KT P6SM BKN040 BKN150=

USA.gov is the U.S. government's official web portal to all federal, state and local government web resources and services.